Burrton, Kansas
Current Conditions -  °F | °C
As of 5:52 PM on Monday 20 Oct 2014 (Local Time) from KHUT Reporting Station
Clear Clear  
Wind Chill: 77°   Ceiling: Unl
Heat Index: 78°   Visibility: 10mi
Dew Point: 42°   Wind: 6mph
Humidity: 29%   Direction: 30°NNE
Pressure: 30.05"   Gusts: NA
Location:  38.02°N, 97.67°W
Report Text: KHUT 202252Z 03005KT 10SM CLR 25/06 A3005 RMK AO2 SLP160 T02500056
Loading
Personal Weather Stations






























Interactive Weather Map
Tropical Storm Tracking
New forecast layout! Learn more

10-Day Weather Forecast

Advertisements
Track Severe Weather on mobile